Time;durP1;ratioP1;P1;durP2;ratioP2;P2;SDS_P1;SDS_P2;PMS_P1;PMS_P2;Temp;Humidity;BMP_temperature;BMP_pressure;BME280_temperature;BME280_humidity;BME280_pressure;Samples;Min_cycle;Max_cycle;Signal;HPM_P1;HPM_P2
2022/05/03 00:01:04;;;;;;;12.20;11.10;;;;;;;-143.37;100.00;62585.38;5064342;28;20585;-75
2022/05/03 00:03:43;;;;;;;12.13;10.93;;;;;;;-143.37;100.00;62585.38;5065785;28;20796;-75
2022/05/03 00:06:23;;;;;;;10.50;9.50;;;;;;;-143.37;100.00;62585.38;5061225;28;21106;-75
2022/05/03 00:09:04;;;;;;;10.77;9.67;;;;;;;-143.37;100.00;62585.38;5061899;28;20442;-75
2022/05/03 00:11:42;;;;;;;10.77;9.77;;;;;;;-143.37;100.00;62585.38;5047938;28;20446;-75
2022/05/03 00:14:23;;;;;;;12.60;11.40;;;;;;;-143.37;100.00;62585.38;5048038;28;20792;-75
2022/05/03 00:16:59;;;;;;;13.60;11.80;;;;;;;-143.37;100.00;62585.38;5067970;28;20462;-75
2022/05/03 00:19:35;;;;;;;12.53;11.33;;;;;;;-143.37;100.00;62585.38;5063495;28;20475;-75
2022/05/03 00:22:11;;;;;;;13.40;11.90;;;;;;;-143.37;100.00;62585.38;5063715;28;20546;-75
2022/05/03 00:24:46;;;;;;;12.17;11.07;;;;;;;-143.37;100.00;62585.38;5066810;28;20441;-76
2022/05/03 00:27:25;;;;;;;12.20;11.00;;;;;;;-143.37;100.00;62585.38;5063610;28;20509;-75
2022/05/03 00:30:03;;;;;;;12.67;11.20;;;;;;;-143.37;100.00;62585.38;5069041;28;20988;-75
2022/05/03 00:32:40;;;;;;;14.33;12.17;;;;;;;-143.37;100.00;62585.38;5045780;28;20949;-75
2022/05/03 00:35:15;;;;;;;13.03;11.60;;;;;;;-143.37;100.00;62585.38;5046601;28;20982;-75
2022/05/03 00:37:51;;;;;;;12.47;11.27;;;;;;;-143.37;100.00;62585.38;5062978;28;20450;-75
2022/05/03 00:40:27;;;;;;;14.47;12.93;;;;;;;-143.37;100.00;62585.38;5067389;28;20441;-76
2022/05/03 00:43:09;;;;;;;16.27;14.57;;;;;;;-143.37;100.00;62585.38;5045039;28;20851;-75
2022/05/03 00:45:50;;;;;;;13.50;11.80;;;;;;;-143.37;100.00;62585.38;5043499;28;20474;-75
2022/05/03 00:48:42;;;;;;;13.40;12.03;;;;;;;-143.37;100.00;62585.38;5036285;28;20809;-75
2022/05/03 00:51:29;;;;;;;14.63;13.30;;;;;;;-143.37;100.00;62585.38;5064392;28;20430;-75
2022/05/03 00:54:12;;;;;;;14.23;12.83;;;;;;;-143.37;100.00;62585.38;5046773;28;20454;-75
2022/05/03 00:57:06;;;;;;;14.17;12.73;;;;;;;-143.37;100.00;62585.38;5066025;28;20803;-75
2022/05/03 01:00:02;;;;;;;15.17;12.50;;;;;;;-143.37;100.00;62585.38;5042976;28;20880;-76
2022/05/03 01:03:08;;;;;;;13.07;11.87;;;;;;;-143.37;100.00;62585.38;5060057;28;20458;-75
2022/05/03 01:05:56;;;;;;;13.13;11.83;;;;;;;-143.37;100.00;62585.38;5046796;28;20536;-75
2022/05/03 01:08:37;;;;;;;12.30;11.10;;;;;;;-143.37;100.00;62585.38;5057852;28;20458;-75
2022/05/03 01:11:23;;;;;;;16.33;13.13;;;;;;;-143.37;100.00;62585.38;5030778;28;20473;-75
2022/05/03 01:14:02;;;;;;;13.67;12.27;;;;;;;-143.37;100.00;62585.38;5064410;28;20454;-75
2022/05/03 01:16:42;;;;;;;13.00;11.70;;;;;;;-143.37;100.00;62585.38;5065597;28;20517;-75
2022/05/03 01:19:45;;;;;;;15.37;11.73;;;;;;;-143.37;100.00;62585.38;5060361;28;20438;-75
2022/05/03 01:22:42;;;;;;;14.53;13.13;;;;;;;-143.37;100.00;62585.38;5063623;28;20532;-75
2022/05/03 01:25:37;;;;;;;13.90;12.57;;;;;;;-143.37;100.00;62585.38;5067041;28;20446;-75
2022/05/03 01:28:23;;;;;;;13.90;12.50;;;;;;;-143.37;100.00;62585.38;5041296;28;20518;-75
2022/05/03 01:31:06;;;;;;;13.77;12.40;;;;;;;-143.37;100.00;62585.38;5064891;28;20473;-75
2022/05/03 01:33:43;;;;;;;14.63;13.13;;;;;;;-143.37;100.00;62585.38;5069443;28;20544;-75
2022/05/03 01:36:36;;;;;;;15.13;13.60;;;;;;;-143.37;100.00;62585.38;5045428;28;20450;-75
2022/05/03 01:39:16;;;;;;;14.83;13.37;;;;;;;-143.37;100.00;62585.38;5064824;28;20440;-75
2022/05/03 01:41:55;;;;;;;16.70;14.67;;;;;;;-143.37;100.00;62585.38;5046771;28;20556;-75
2022/05/03 01:44:38;;;;;;;16.13;14.43;;;;;;;-143.37;100.00;62585.38;5062923;28;20441;-75
2022/05/03 01:47:19;;;;;;;17.37;15.67;;;;;;;-143.37;100.00;62585.38;5064180;28;20818;-75
2022/05/03 01:50:20;;;;;;;17.57;15.77;;;;;;;-143.37;100.00;62585.38;5065208;28;20430;-75
2022/05/03 01:53:08;;;;;;;19.70;17.60;;;;;;;-143.37;100.00;62585.38;5042094;28;20449;-75
2022/05/03 01:56:21;;;;;;;20.20;18.10;;;;;;;-143.37;100.00;62585.38;5045328;28;20835;-75
2022/05/03 01:59:05;;;;;;;18.77;16.97;;;;;;;-143.37;100.00;62585.38;5066523;28;20465;-75
2022/05/03 02:01:54;;;;;;;18.50;16.60;;;;;;;-143.37;100.00;62585.38;5044083;28;20477;-75
2022/05/03 02:04:49;;;;;;;17.13;15.43;;;;;;;-143.37;100.00;62585.38;5052805;28;20940;-75
2022/05/03 02:07:35;;;;;;;19.20;17.07;;;;;;;-143.37;100.00;62585.38;5056797;28;20972;-77
2022/05/03 02:10:18;;;;;;;18.47;16.60;;;;;;;-143.37;100.00;62585.38;5049221;28;20461;-77
2022/05/03 02:12:55;;;;;;;20.07;17.77;;;;;;;-143.37;100.00;62585.38;5068259;28;20461;-77
2022/05/03 02:15:39;;;;;;;20.47;16.70;;;;;;;-143.37;100.00;62585.38;5064465;28;20441;-77
2022/05/03 02:18:23;;;;;;;18.57;15.83;;;;;;;-143.37;100.00;62585.38;5065436;28;20449;-77
2022/05/03 02:21:14;;;;;;;23.40;18.03;;;;;;;-143.37;100.00;62585.38;5067864;28;20477;-76
2022/05/03 02:23:59;;;;;;;18.63;16.83;;;;;;;-143.37;100.00;62585.38;5048222;28;20979;-77
2022/05/03 02:26:40;;;;;;;19.53;17.37;;;;;;;-143.37;100.00;62585.38;5048987;28;20857;-77
2022/05/03 02:29:17;;;;;;;19.27;17.37;;;;;;;-143.37;100.00;62585.38;5048379;28;20501;-76
2022/05/03 02:31:58;;;;;;;19.10;16.43;;;;;;;-143.37;100.00;62585.38;5066503;28;20575;-76
2022/05/03 02:34:36;;;;;;;19.80;17.83;;;;;;;-143.37;100.00;62585.38;5069761;28;20924;-76
2022/05/03 02:37:16;;;;;;;18.50;16.13;;;;;;;-143.37;100.00;62585.38;5068481;28;20442;-76
2022/05/03 02:39:56;;;;;;;20.30;17.20;;;;;;;-143.37;100.00;62585.38;5071790;28;20445;-76
2022/05/03 02:42:32;;;;;;;20.03;16.63;;;;;;;-143.37;100.00;62585.38;5066542;28;20442;-76
2022/05/03 02:45:08;;;;;;;19.47;16.77;;;;;;;-143.37;100.00;62585.38;5067104;28;20474;-76
2022/05/03 02:47:49;;;;;;;20.00;16.70;;;;;;;-143.37;100.00;62585.38;5044766;28;20478;-76
2022/05/03 02:50:29;;;;;;;19.80;17.30;;;;;;;-143.37;100.00;62585.38;5063622;28;20516;-76
2022/05/03 02:53:09;;;;;;;18.67;16.47;;;;;;;-143.37;100.00;62585.38;5049683;28;20516;-76
2022/05/03 02:55:50;;;;;;;18.00;16.10;;;;;;;-143.37;100.00;62585.38;5052688;28;20840;-76
2022/05/03 02:58:38;;;;;;;15.93;14.33;;;;;;;-143.37;100.00;62585.38;5053186;28;20453;-76
2022/05/03 03:04:35;;;;;;;17.60;15.70;;;;;;;-143.37;100.00;62585.38;4995916;28;20473;-76
2022/05/03 03:07:14;;;;;;;18.60;16.07;;;;;;;-143.37;100.00;62585.38;5066240;28;20478;-76
2022/05/03 03:09:56;;;;;;;17.93;16.03;;;;;;;-143.37;100.00;62585.38;5051360;28;20437;-76
2022/05/03 03:12:39;;;;;;;19.17;16.77;;;;;;;-143.37;100.00;62585.38;5067808;28;20445;-77
2022/05/03 03:15:17;;;;;;;19.97;17.90;;;;;;;-143.37;100.00;62585.38;5067225;28;20435;-76
2022/05/03 03:17:53;;;;;;;19.10;17.00;;;;;;;-143.37;100.00;62585.38;5044880;28;20533;-77
2022/05/03 03:20:29;;;;;;;20.10;18.00;;;;;;;-143.37;100.00;62585.38;5043569;28;20912;-76
2022/05/03 03:23:06;;;;;;;19.67;16.63;;;;;;;-143.37;100.00;62585.38;5040699;28;20453;-77
2022/05/03 03:25:44;;;;;;;21.67;17.70;;;;;;;-143.37;100.00;62585.38;5066280;28;20441;-76
2022/05/03 03:28:22;;;;;;;20.07;17.97;;;;;;;-143.37;100.00;62585.38;5067055;28;20518;-76
2022/05/03 03:30:59;;;;;;;21.33;18.47;;;;;;;-143.37;100.00;62585.38;5050077;28;20544;-77
2022/05/03 03:33:37;;;;;;;20.70;18.50;;;;;;;-143.37;100.00;62585.38;5048965;28;20881;-76
2022/05/03 03:36:14;;;;;;;20.50;18.37;;;;;;;-143.37;100.00;62585.38;5067706;28;20439;-76
2022/05/03 03:38:50;;;;;;;20.47;18.27;;;;;;;-143.37;100.00;62585.38;5046295;28;20453;-77
2022/05/03 03:41:27;;;;;;;18.97;17.07;;;;;;;-143.37;100.00;62585.38;5044678;28;20438;-76
2022/05/03 03:44:05;;;;;;;20.13;17.70;;;;;;;-143.37;100.00;62585.38;5044667;28;20438;-77
2022/05/03 03:46:41;;;;;;;21.10;18.83;;;;;;;-143.37;100.00;62585.38;5066485;28;20430;-77
2022/05/03 03:49:17;;;;;;;19.53;17.53;;;;;;;-143.37;100.00;62585.38;5065402;28;20462;-76
2022/05/03 03:51:52;;;;;;;19.07;17.10;;;;;;;-143.37;100.00;62585.38;5064688;28;20561;-76
2022/05/03 03:54:28;;;;;;;20.13;17.40;;;;;;;-143.37;100.00;62585.38;5047745;28;20437;-76
2022/05/03 03:57:06;;;;;;;19.83;17.10;;;;;;;-143.37;100.00;62585.38;5047433;28;20446;-77
2022/05/03 03:59:42;;;;;;;18.70;16.80;;;;;;;-143.37;100.00;62585.38;5040361;28;20434;-77
2022/05/03 04:02:22;;;;;;;18.07;16.00;;;;;;;-143.37;100.00;62585.38;5062648;28;20437;-77
2022/05/03 04:05:00;;;;;;;18.00;16.20;;;;;;;-143.37;100.00;62585.38;5066753;28;20445;-76
2022/05/03 04:07:35;;;;;;;19.03;16.93;;;;;;;-143.37;100.00;62585.38;5063867;28;20474;-76
2022/05/03 04:10:11;;;;;;;19.30;17.20;;;;;;;-143.37;100.00;62585.38;5067530;28;20529;-76
2022/05/03 04:12:48;;;;;;;17.70;15.80;;;;;;;-143.37;100.00;62585.38;5065953;28;20835;-77
2022/05/03 04:15:26;;;;;;;19.80;16.60;;;;;;;-143.37;100.00;62585.38;5068103;28;20859;-76
2022/05/03 04:18:06;;;;;;;18.90;16.50;;;;;;;-143.37;100.00;62585.38;5065266;28;20809;-76
2022/05/03 04:20:42;;;;;;;17.70;15.90;;;;;;;-143.37;100.00;62585.38;5048597;28;20457;-76
2022/05/03 04:23:23;;;;;;;20.80;17.20;;;;;;;-143.37;100.00;62585.38;5067050;28;20474;-77
2022/05/03 04:25:59;;;;;;;18.90;16.47;;;;;;;-143.37;100.00;62585.38;5049997;28;20450;-77
2022/05/03 04:28:36;;;;;;;17.70;15.90;;;;;;;-143.37;100.00;62585.38;5062582;28;20513;-76
2022/05/03 04:31:12;;;;;;;18.97;16.97;;;;;;;-143.37;100.00;62585.38;5066112;28;20476;-76
2022/05/03 04:33:48;;;;;;;20.43;17.57;;;;;;;-143.37;100.00;62585.38;5046176;28;21161;-76
2022/05/03 04:36:25;;;;;;;19.27;17.27;;;;;;;-143.37;100.00;62585.38;5049048;28;20469;-77
2022/05/03 04:39:01;;;;;;;18.97;17.07;;;;;;;-143.37;100.00;62585.38;5066824;28;20525;-76
2022/05/03 04:41:36;;;;;;;18.10;16.20;;;;;;;-143.37;100.00;62585.38;5064395;28;20446;-77
2022/05/03 04:44:13;;;;;;;18.40;16.50;;;;;;;-143.37;100.00;62585.38;5063779;28;20917;-76
2022/05/03 04:46:49;;;;;;;20.17;17.00;;;;;;;-143.37;100.00;62585.38;5066921;28;20442;-76
2022/05/03 04:49:25;;;;;;;19.33;17.30;;;;;;;-143.37;100.00;62585.38;5037447;28;21005;-76
2022/05/03 04:52:00;;;;;;;19.70;17.60;;;;;;;-143.37;100.00;62585.38;5066569;28;20928;-76
2022/05/03 04:54:36;;;;;;;18.03;16.20;;;;;;;-143.37;100.00;62585.38;5064434;28;20528;-76
2022/05/03 04:57:11;;;;;;;19.10;16.20;;;;;;;-143.37;100.00;62585.38;5029374;28;20533;-76
2022/05/03 04:59:48;;;;;;;19.33;16.50;;;;;;;-143.37;100.00;62585.38;5062606;28;20435;-76
2022/05/03 05:02:24;;;;;;;18.40;16.40;;;;;;;-143.37;100.00;62585.38;5047468;28;20477;-75
2022/05/03 05:05:00;;;;;;;22.10;15.60;;;;;;;-143.37;100.00;62585.38;5059305;28;20449;-75
2022/05/03 05:07:35;;;;;;;19.33;16.40;;;;;;;-143.37;100.00;62585.38;5045605;28;20539;-76
2022/05/03 05:10:27;;;;;;;16.87;15.07;;;;;;;-143.37;100.00;62585.38;5046485;28;20433;-75
2022/05/03 05:13:02;;;;;;;20.40;16.50;;;;;;;-143.37;100.00;62585.38;5065073;28;20454;-76
2022/05/03 05:15:39;;;;;;;17.77;16.00;;;;;;;-143.37;100.00;62585.38;5048947;28;20431;-76
2022/05/03 05:18:16;;;;;;;17.27;15.47;;;;;;;-143.37;100.00;62585.38;5061730;28;20437;-76
2022/05/03 05:20:52;;;;;;;18.20;15.73;;;;;;;-143.37;100.00;62585.38;5068137;28;20444;-76
2022/05/03 05:23:28;;;;;;;18.50;16.30;;;;;;;-143.37;100.00;62585.38;5046125;28;20458;-76
2022/05/03 05:26:04;;;;;;;18.53;16.60;;;;;;;-143.37;100.00;62585.38;5046044;28;20466;-76
2022/05/03 05:28:39;;;;;;;18.57;16.63;;;;;;;-143.37;100.00;62585.38;5029628;28;20509;-77
2022/05/03 05:31:16;;;;;;;18.07;16.17;;;;;;;-143.37;100.00;62585.38;5044849;28;20477;-76
2022/05/03 05:33:52;;;;;;;19.17;17.17;;;;;;;-143.37;100.00;62585.38;5049122;28;20943;-77
2022/05/03 05:36:28;;;;;;;18.47;16.57;;;;;;;-143.37;100.00;62585.38;5069943;28;20792;-77
2022/05/03 05:39:03;;;;;;;18.53;16.53;;;;;;;-143.37;100.00;62585.38;5044791;28;20449;-77
2022/05/03 05:41:39;;;;;;;19.50;17.40;;;;;;;-143.37;100.00;62585.38;5065996;28;20491;-77
2022/05/03 05:44:14;;;;;;;20.17;18.17;;;;;;;-143.37;100.00;62585.38;5047083;28;20838;-77
2022/05/03 05:46:52;;;;;;;19.33;17.40;;;;;;;-143.37;100.00;62585.38;5068331;28;20939;-77
2022/05/03 05:49:27;;;;;;;18.73;16.83;;;;;;;-143.37;100.00;62585.38;5047784;28;20458;-77
2022/05/03 05:54:53;;;;;;;19.00;17.13;;;;;;;-143.37;100.00;62585.38;5045855;28;20588;-77
2022/05/03 05:57:29;;;;;;;17.10;15.40;;;;;;;-143.37;100.00;62585.38;5048862;28;20461;-77
2022/05/03 06:00:06;;;;;;;19.93;17.80;;;;;;;-143.37;100.00;62585.38;5060184;28;20447;-77
2022/05/03 06:02:48;;;;;;;17.73;15.97;;;;;;;-143.37;100.00;62585.38;5060740;28;20446;-77
2022/05/03 06:05:23;;;;;;;17.67;15.77;;;;;;;-143.37;100.00;62585.38;5042920;28;20744;-78
2022/05/03 06:07:59;;;;;;;18.13;16.00;;;;;;;-143.37;100.00;62585.38;5064603;28;20470;-77
2022/05/03 06:10:35;;;;;;;18.00;16.30;;;;;;;-143.37;100.00;62585.38;5065328;28;20445;-77
2022/05/03 06:13:10;;;;;;;16.10;14.50;;;;;;;-143.37;100.00;62585.38;5063220;28;20442;-77
2022/05/03 06:15:46;;;;;;;18.47;16.67;;;;;;;-143.37;100.00;62585.38;5063877;28;20472;-77
2022/05/03 06:18:23;;;;;;;17.87;16.17;;;;;;;-143.37;100.00;62585.38;5041769;28;20453;-77
2022/05/03 06:20:58;;;;;;;17.47;15.83;;;;;;;-143.37;100.00;62585.38;5058408;28;20450;-77
2022/05/03 06:23:34;;;;;;;16.90;15.30;;;;;;;-143.37;100.00;62585.38;5065378;28;20494;-78
2022/05/03 06:26:10;;;;;;;18.23;16.53;;;;;;;-143.37;100.00;62585.38;5043905;28;20433;-78
2022/05/03 06:28:46;;;;;;;17.57;15.77;;;;;;;-143.37;100.00;62585.38;5042685;28;20473;-76
2022/05/03 06:31:24;;;;;;;16.90;15.20;;;;;;;-143.37;100.00;62585.38;5044638;28;20892;-78
2022/05/03 06:34:01;;;;;;;17.77;16.17;;;;;;;-143.37;100.00;62585.38;5046206;28;20439;-78
2022/05/03 06:36:37;;;;;;;16.10;14.50;;;;;;;-143.37;100.00;62585.38;5052531;28;20438;-79
2022/05/03 06:39:13;;;;;;;17.13;15.53;;;;;;;-143.37;100.00;62585.38;5042825;28;20940;-76
2022/05/03 06:41:48;;;;;;;14.83;13.43;;;;;;;-143.37;100.00;62585.38;5049040;28;20832;-78
2022/05/03 06:44:24;;;;;;;13.93;12.63;;;;;;;-143.37;100.00;62585.38;5041467;28;20473;-76
2022/05/03 06:47:00;;;;;;;10.40;9.40;;;;;;;-143.37;100.00;62585.38;5064623;28;20454;-77
2022/05/03 06:49:36;;;;;;;10.80;9.80;;;;;;;-143.37;100.00;62585.38;5042607;28;21004;-77
2022/05/03 06:52:13;;;;;;;10.13;9.10;;;;;;;-143.37;100.00;62585.38;5059853;28;20868;-77
2022/05/03 06:54:48;;;;;;;11.73;8.60;;;;;;;-143.37;100.00;62585.38;5060868;28;20446;-77
2022/05/03 06:57:24;;;;;;;13.67;12.43;;;;;;;-143.37;100.00;62585.38;5048212;28;20901;-76
2022/05/03 07:00:01;;;;;;;14.17;12.83;;;;;;;-143.37;100.00;62585.38;5043602;28;20430;-77
2022/05/03 07:02:37;;;;;;;13.23;11.93;;;;;;;-143.37;100.00;62585.38;5059060;28;20451;-77
2022/05/03 07:05:14;;;;;;;15.27;13.03;;;;;;;-143.37;100.00;62585.38;5062434;28;20441;-77
2022/05/03 07:07:50;;;;;;;20.67;14.60;;;;;;;-143.37;100.00;62585.38;5061185;28;20562;-77
2022/05/03 07:10:25;;;;;;;15.67;14.23;;;;;;;-143.37;100.00;62585.38;5044451;28;20429;-77
2022/05/03 07:13:01;;;;;;;14.60;13.40;;;;;;;-143.37;100.00;62585.38;5047354;28;20967;-77
2022/05/03 07:15:36;;;;;;;14.27;12.90;;;;;;;-143.37;100.00;62585.38;5046754;28;20784;-77
2022/05/03 07:24:00;;;;;;;13.67;12.37;;;;;;;-143.37;100.00;62585.38;5063427;28;20439;-77
2022/05/03 07:26:37;;;;;;;14.00;12.10;;;;;;;-143.37;100.00;62585.38;5053645;28;20450;-77
2022/05/03 07:29:13;;;;;;;14.00;12.70;;;;;;;-143.37;100.00;62585.38;5069852;28;20457;-77
2022/05/03 07:31:49;;;;;;;15.80;14.40;;;;;;;-143.37;100.00;62585.38;5067105;28;20474;-77
2022/05/03 07:34:26;;;;;;;14.83;13.20;;;;;;;-143.37;100.00;62585.38;5046488;28;20971;-76
2022/05/03 07:37:03;;;;;;;14.80;13.50;;;;;;;-143.37;100.00;62585.38;5047836;28;20792;-77
2022/05/03 07:39:39;;;;;;;16.10;14.60;;;;;;;-143.37;100.00;62585.38;5047590;28;20442;-77
2022/05/03 07:42:15;;;;;;;15.27;13.87;;;;;;;-143.37;100.00;62585.38;5047950;28;20442;-77
2022/05/03 07:44:50;;;;;;;13.87;12.70;;;;;;;-143.37;100.00;62585.38;5061419;28;20446;-77
2022/05/03 07:47:26;;;;;;;14.80;13.30;;;;;;;-143.37;100.00;62585.38;5067540;28;20909;-77
2022/05/03 07:50:01;;;;;;;14.77;13.23;;;;;;;-143.37;100.00;62585.38;5030370;28;20462;-77
2022/05/03 07:52:39;;;;;;;12.87;11.60;;;;;;;-143.37;100.00;62585.38;5051107;28;20849;-77
2022/05/03 07:55:14;;;;;;;15.00;13.70;;;;;;;-143.37;100.00;62585.38;5065536;28;20442;-77
2022/05/03 07:57:50;;;;;;;12.80;11.70;;;;;;;-143.37;100.00;62585.38;5063358;28;20459;-77
2022/05/03 08:00:26;;;;;;;12.43;11.33;;;;;;;-143.37;100.00;62585.38;5063191;28;20425;-77
2022/05/03 08:03:02;;;;;;;11.90;10.90;;;;;;;-143.37;100.00;62585.38;5040481;28;20480;-77
2022/05/03 08:05:38;;;;;;;11.63;10.53;;;;;;;-143.37;100.00;62585.38;5048972;28;20437;-77
2022/05/03 08:08:23;;;;;;;10.93;9.93;;;;;;;-143.37;100.00;62585.38;5063358;28;20830;-77
2022/05/03 08:10:59;;;;;;;10.50;9.60;;;;;;;-143.37;100.00;62585.38;5063856;28;20448;-77
2022/05/03 08:13:35;;;;;;;11.07;9.97;;;;;;;-143.37;100.00;62585.38;5048400;28;20441;-77
2022/05/03 08:16:18;;;;;;;12.13;11.10;;;;;;;-143.37;100.00;62585.38;5065111;28;20438;-77
2022/05/03 08:18:53;;;;;;;10.23;9.23;;;;;;;-143.37;100.00;62585.38;5033750;28;20512;-77
2022/05/03 08:21:30;;;;;;;10.43;9.53;;;;;;;-143.37;100.00;62585.38;5039941;28;20438;-77
2022/05/03 08:24:07;;;;;;;13.93;12.67;;;;;;;-143.37;100.00;62585.38;5068992;28;20479;-77
2022/05/03 08:29:50;;;;;;;13.27;12.07;;;;;;;-143.37;100.00;62585.38;5047498;28;20465;-79
2022/05/03 08:32:26;;;;;;;14.20;12.80;;;;;;;-143.37;100.00;62585.38;5019822;28;20491;-76
2022/05/03 08:35:01;;;;;;;14.90;12.73;;;;;;;-143.37;100.00;62585.38;5017582;28;20958;-77
2022/05/03 08:43:26;;;;;;;12.93;11.70;;;;;;;-143.37;100.00;62585.38;5024873;28;20795;-78
2022/05/03 08:46:02;;;;;;;14.50;12.53;;;;;;;-143.37;100.00;62585.38;5026480;28;20450;-78
2022/05/03 08:48:41;;;;;;;13.20;11.90;;;;;;;-143.37;100.00;62585.38;5025582;28;20821;-79
2022/05/03 08:51:18;;;;;;;11.53;10.50;;;;;;;-143.37;100.00;62585.38;5029740;28;20446;-78
2022/05/03 08:53:53;;;;;;;12.57;11.37;;;;;;;-143.37;100.00;62585.38;5047722;28;20837;-78
2022/05/03 08:56:30;;;;;;;11.13;10.10;;;;;;;-143.37;100.00;62585.38;5029701;28;20544;-78
2022/05/03 08:59:06;;;;;;;11.00;9.97;;;;;;;-143.37;100.00;62585.38;5017040;28;20444;-78
2022/05/03 09:01:42;;;;;;;10.77;9.77;;;;;;;-143.37;100.00;62585.38;5028926;28;20454;-77
2022/05/03 09:06:54;;;;;;;8.33;7.63;;;;;;;-143.37;100.00;62585.38;5033922;28;20643;-76
2022/05/03 09:09:29;;;;;;;8.97;8.17;;;;;;;-143.37;100.00;62585.38;5023532;28;20460;-76
2022/05/03 09:12:10;;;;;;;7.13;6.53;;;;;;;-143.37;100.00;62585.38;5021596;28;20495;-76
2022/05/03 09:14:50;;;;;;;7.73;7.03;;;;;;;-143.37;100.00;62585.38;5027101;28;20486;-76
2022/05/03 09:17:36;;;;;;;7.20;6.50;;;;;;;-143.37;100.00;62585.38;5027614;28;20530;-76
2022/05/03 09:26:13;;;;;;;9.10;8.30;;;;;;;-143.37;100.00;62585.38;5012087;28;20976;-76
2022/05/03 09:28:52;;;;;;;8.07;7.40;;;;;;;-143.37;100.00;62585.38;5009392;28;20547;-76
2022/05/03 09:31:30;;;;;;;7.10;6.50;;;;;;;-143.37;100.00;62585.38;4992079;28;21034;-76
2022/05/03 09:34:18;;;;;;;8.20;7.50;;;;;;;-143.37;100.00;62585.38;5009657;28;20448;-76
2022/05/03 09:37:05;;;;;;;8.00;7.30;;;;;;;-143.37;100.00;62585.38;5023107;28;20942;-76
2022/05/03 09:39:47;;;;;;;8.10;7.40;;;;;;;-143.37;100.00;62585.38;5026436;28;20837;-76
2022/05/03 09:42:25;;;;;;;8.23;7.53;;;;;;;-143.37;100.00;62585.38;5008833;28;20787;-77
2022/05/03 09:45:03;;;;;;;7.50;6.80;;;;;;;-143.37;100.00;62585.38;5006941;28;20448;-77
2022/05/03 09:47:49;;;;;;;6.90;6.10;;;;;;;-143.37;100.00;62585.38;5008590;28;20448;-77
2022/05/03 09:50:26;;;;;;;7.20;6.60;;;;;;;-143.37;100.00;62585.38;5014521;28;20468;-77
2022/05/03 09:53:08;;;;;;;6.33;5.83;;;;;;;-143.37;100.00;62585.38;5009254;28;20436;-77
2022/05/03 09:55:46;;;;;;;6.30;5.80;;;;;;;-143.37;100.00;62585.38;5023442;28;20495;-77
2022/05/03 09:58:25;;;;;;;7.57;6.87;;;;;;;-143.37;100.00;62585.38;5005054;28;20443;-77
2022/05/03 10:01:02;;;;;;;7.30;6.70;;;;;;;-143.37;100.00;62585.38;5027863;28;20455;-77
2022/05/03 10:03:38;;;;;;;8.70;7.90;;;;;;;-143.37;100.00;62585.38;5010808;28;20450;-77
2022/05/03 10:06:14;;;;;;;7.90;7.10;;;;;;;-143.37;100.00;62585.38;5016187;28;20569;-77
2022/05/03 10:08:51;;;;;;;8.17;7.50;;;;;;;-143.37;100.00;62585.38;5049039;28;20458;-77
2022/05/03 10:11:28;;;;;;;7.40;6.80;;;;;;;-143.37;100.00;62585.38;5025401;28;20478;-77
2022/05/03 10:14:04;;;;;;;7.63;6.93;;;;;;;-143.37;100.00;62585.38;5039812;28;20913;-77
2022/05/03 10:22:30;;;;;;;8.07;7.27;;;;;;;-143.37;100.00;62585.38;5048077;28;20439;-77
2022/05/03 10:25:28;;;;;;;7.97;7.17;;;;;;;-143.37;100.00;62585.38;5051354;28;20482;-77
2022/05/03 10:28:06;;;;;;;6.93;6.23;;;;;;;-143.37;100.00;62585.38;5029033;28;20451;-77
2022/05/03 10:31:15;;;;;;;6.87;6.27;;;;;;;-143.37;100.00;62585.38;5048617;28;21119;-77
2022/05/03 10:33:52;;;;;;;6.30;5.70;;;;;;;-143.37;100.00;62585.38;5038413;28;20438;-77
2022/05/03 10:36:44;;;;;;;9.53;7.60;;;;;;;-143.37;100.00;62585.38;5046556;28;20478;-76
2022/05/03 10:39:23;;;;;;;8.80;8.00;;;;;;;-143.37;100.00;62585.38;5033531;28;20455;-76
2022/05/03 10:42:02;;;;;;;9.03;8.23;;;;;;;-143.37;100.00;62585.38;5028206;28;20447;-76
2022/05/03 10:44:46;;;;;;;9.33;7.40;;;;;;;-143.37;100.00;62585.38;5033192;28;20434;-77
2022/05/03 10:47:39;;;;;;;7.27;6.67;;;;;;;-143.37;100.00;62585.38;5029974;28;20447;-77
2022/05/03 10:50:30;;;;;;;7.73;7.03;;;;;;;-143.37;100.00;62585.38;5025569;28;20837;-77
2022/05/03 10:53:27;;;;;;;7.60;6.90;;;;;;;-143.37;100.00;62585.38;5021847;28;20443;-77
2022/05/03 10:56:22;;;;;;;7.50;6.80;;;;;;;-143.37;100.00;62585.38;5038701;28;20452;-76
2022/05/03 10:59:10;;;;;;;7.20;6.60;;;;;;;-143.37;100.00;62585.38;5011240;28;20936;-76
2022/05/03 11:02:09;;;;;;;7.40;6.70;;;;;;;-143.37;100.00;62585.38;5032073;28;20458;-77
2022/05/03 11:05:16;;;;;;;8.60;7.90;;;;;;;-143.37;100.00;62585.38;5050687;28;20442;-77
2022/05/03 11:08:16;;;;;;;8.07;7.33;;;;;;;-143.37;100.00;62585.38;5043504;28;20474;-76
2022/05/03 11:10:52;;;;;;;9.50;8.60;;;;;;;-143.37;100.00;62585.38;5048983;28;20479;-77
2022/05/03 11:13:39;;;;;;;9.23;7.20;;;;;;;-143.37;100.00;62585.38;5044434;28;20454;-76
2022/05/03 11:16:23;;;;;;;8.30;7.47;;;;;;;-143.37;100.00;62585.38;5049806;28;20455;-76
2022/05/03 11:18:59;;;;;;;7.50;6.90;;;;;;;-143.37;100.00;62585.38;5026137;28;20859;-76
2022/05/03 11:21:35;;;;;;;8.20;7.13;;;;;;;-143.37;100.00;62585.38;5045775;28;20462;-76
2022/05/03 11:24:19;;;;;;;9.10;7.50;;;;;;;-143.37;100.00;62585.38;5029169;28;20442;-76
2022/05/03 11:26:56;;;;;;;6.70;6.10;;;;;;;-143.37;100.00;62585.38;5024098;28;20451;-76
2022/05/03 11:29:33;;;;;;;6.83;6.23;;;;;;;-143.37;100.00;62585.38;5030387;28;20466;-76
2022/05/03 11:32:10;;;;;;;6.40;5.83;;;;;;;-143.37;100.00;62585.38;5024379;28;20459;-76
2022/05/03 11:34:45;;;;;;;6.90;6.30;;;;;;;-143.37;100.00;62585.38;5045624;28;20442;-76
2022/05/03 11:37:21;;;;;;;8.13;7.23;;;;;;;-143.37;100.00;62585.38;5007561;28;20454;-77
2022/05/03 11:40:07;;;;;;;7.00;6.33;;;;;;;-143.37;100.00;62585.38;5026030;28;20790;-78
2022/05/03 11:42:44;;;;;;;6.63;6.03;;;;;;;-143.37;100.00;62585.38;5048651;28;20459;-78
2022/05/03 11:45:22;;;;;;;9.20;6.90;;;;;;;-143.37;100.00;62585.38;5032521;28;21205;-76
2022/05/03 11:48:00;;;;;;;6.97;6.37;;;;;;;-143.37;100.00;62585.38;5022970;28;20518;-76
2022/05/03 11:56:26;;;;;;;7.10;6.40;;;;;;;-143.37;100.00;62585.38;5021829;28;20486;-76
2022/05/03 11:59:02;;;;;;;7.70;7.00;;;;;;;-143.37;100.00;62585.38;5024884;28;21037;-76
2022/05/03 12:01:38;;;;;;;7.27;6.67;;;;;;;-143.37;100.00;62585.38;5023455;28;20455;-76
2022/05/03 12:04:20;;;;;;;7.80;6.57;;;;;;;-143.37;100.00;62585.38;5039794;28;20435;-76
2022/05/03 12:06:56;;;;;;;6.97;6.30;;;;;;;-143.37;100.00;62585.38;5039335;28;20838;-76
2022/05/03 12:09:36;;;;;;;7.23;6.57;;;;;;;-143.37;100.00;62585.38;5021384;28;20499;-76
2022/05/03 12:15:20;;;;;;;7.30;6.70;;;;;;;-143.37;100.00;62585.38;5020809;28;20491;-76
2022/05/03 12:17:59;;;;;;;7.67;6.97;;;;;;;-143.37;100.00;62585.38;5043719;28;20427;-76
2022/05/03 12:20:43;;;;;;;6.87;6.20;;;;;;;-143.37;100.00;62585.38;5044858;28;20438;-76
2022/05/03 12:23:22;;;;;;;7.70;7.00;;;;;;;-143.37;100.00;62585.38;5040328;28;20527;-76
2022/05/03 12:25:59;;;;;;;7.60;6.90;;;;;;;-143.37;100.00;62585.38;5024278;28;20961;-76
2022/05/03 12:28:37;;;;;;;7.00;6.50;;;;;;;-143.37;100.00;62585.38;5027468;28;21333;-76
2022/05/03 12:31:14;;;;;;;7.90;7.20;;;;;;;-143.37;100.00;62585.38;5025049;28;20507;-76
2022/05/03 12:33:53;;;;;;;8.00;7.13;;;;;;;-143.37;100.00;62585.38;5023835;28;20438;-76
2022/05/03 12:36:30;;;;;;;6.90;6.30;;;;;;;-143.37;100.00;62585.38;5029839;28;20493;-76
2022/05/03 12:39:10;;;;;;;14.73;6.50;;;;;;;-143.37;100.00;62585.38;5043266;28;20444;-76